Main page
METAR-TAF:

METAR-TAF

Airports :

Malekoula Airport

Malakula, Vanuatu

latitude: 16-27-26S, longitude: 167-49-42E, elevation: 2 m

METAR: missing

Time: 04:05 (17:05 UTC)

Forecast

The report was made 6 hours and 5 minutes ago, at 11:00 UTC
Forecast valid from 21 at 12 UTC to 22 at 12 UTC
Wind 10 kt from the East/Southeast
Visibility: 8000 m
Scattered clouds at a height of 2000 ft
Broken clouds at a height of 4000 ft
Scattered clouds at a height of 1000 ft
Broken clouds at a height of 1600 ft
Overcast at a height of 3800 ft
rain showers,

TAF: NVSL 211100Z 2112/2212 12010KT 9999 SCT020 BKN040 INTER 2112/2115 8000 SHRA SCT010 BKN016 OVC038

Weather observations and forecasts of more than 4000 airports (METAR and TAF reports).

The available stations are represented by yellow and red dots on the map.

Hover mouse over dot to see the name of the station.

Then click to see weather observations and forecasts.

To change the map : click on the green buttons with a black cross to zoom in, on the green button with a dash to zoom out, or on the green arrows for adjacent maps.


METAR-TAF: